Time;durP1;ratioP1;P1;durP2;ratioP2;P2;SDS_P1;SDS_P2;PMS_P1;PMS_P2;Temp;Humidity;BMP_temperature;BMP_pressure;BME280_temperature;BME280_humidity;BME280_pressure;Samples;Min_cycle;Max_cycle;Signal;HPM_P1;HPM_P2
2023/10/02 00:01:33;;;;;;;11.67;2.90;;;;;;;10.45;100.00;101157.48;1421275;92;21442;-83
2023/10/02 00:06:42;;;;;;;8.70;3.47;;;;;;;10.37;100.00;101156.78;1421566;92;21449;-83
2023/10/02 00:09:08;;;;;;;9.63;3.23;;;;;;;10.30;100.00;101169.32;1417622;92;21556;-84
2023/10/02 00:11:41;;;;;;;9.07;2.97;;;;;;;10.26;100.00;101170.52;1418951;92;21404;-84
2023/10/02 00:14:23;;;;;;;8.33;3.20;;;;;;;10.28;100.00;101169.47;1420240;92;21672;-84
2023/10/02 00:16:59;;;;;;;5.80;2.50;;;;;;;10.31;100.00;101170.53;1423054;92;21419;-83
2023/10/02 00:19:30;;;;;;;10.67;3.33;;;;;;;10.35;100.00;101169.30;1424309;92;21792;-84
2023/10/02 00:22:03;;;;;;;10.72;3.12;;;;;;;10.37;100.00;101167.38;1426890;92;21353;-84
2023/10/02 00:24:32;;;;;;;10.25;2.77;;;;;;;10.39;100.00;101170.73;1423673;92;21463;-84
2023/10/02 00:26:58;;;;;;;9.17;3.47;;;;;;;10.43;100.00;101166.51;1420569;92;21440;-84
2023/10/02 00:29:28;;;;;;;9.03;3.50;;;;;;;10.46;100.00;101172.86;1422097;91;21383;-86
2023/10/02 00:31:56;;;;;;;8.77;3.10;;;;;;;10.47;100.00;101170.56;1426355;91;21338;-88
2023/10/02 00:34:32;;;;;;;8.80;2.80;;;;;;;10.48;100.00;101174.42;1423381;92;21450;-86
2023/10/02 00:37:12;;;;;;;10.37;3.20;;;;;;;10.51;100.00;101171.52;1426562;91;22306;-86
2023/10/02 00:39:36;;;;;;;3.70;1.90;;;;;;;10.57;100.00;101173.64;1417749;92;21634;-87
2023/10/02 00:42:15;;;;;;;7.67;2.57;;;;;;;10.64;100.00;101169.14;1421327;92;21420;-88
2023/10/02 00:44:54;;;;;;;13.37;3.17;;;;;;;10.73;100.00;101170.55;1418335;91;21412;-88
2023/10/02 00:47:52;;;;;;;6.80;2.27;;;;;;;10.86;100.00;101174.79;1425933;92;21466;-87
2023/10/02 00:50:21;;;;;;;10.70;2.90;;;;;;;10.93;100.00;101182.55;1423353;92;21479;-87
2023/10/02 00:52:51;;;;;;;5.47;2.53;;;;;;;10.98;100.00;101186.97;1421968;92;21669;-88
2023/10/02 00:55:24;;;;;;;9.30;2.90;;;;;;;11.01;100.00;101192.84;1424151;91;21391;-88
2023/10/02 00:57:58;;;;;;;13.27;2.80;;;;;;;11.00;100.00;101186.36;1401105;92;21865;-88
2023/10/02 01:00:31;;;;;;;9.17;3.10;;;;;;;10.99;100.00;101183.34;1396092;92;21466;-87
2023/10/02 01:02:59;;;;;;;8.57;2.63;;;;;;;10.97;100.00;101183.98;1421277;92;21457;-85
2023/10/02 01:05:50;;;;;;;7.50;2.93;;;;;;;10.95;100.00;101185.91;1425652;92;21368;-85
2023/10/02 01:08:03;;;;;;;7.57;2.87;;;;;;;10.91;100.00;101193.29;1418755;92;21994;-85
2023/10/02 01:10:30;;;;;;;6.93;2.13;;;;;;;10.88;100.00;101196.20;1421837;92;21509;-86
2023/10/02 01:13:01;;;;;;;8.50;2.70;;;;;;;10.88;100.00;101205.96;1420273;92;21412;-86
2023/10/02 01:15:29;;;;;;;7.63;2.53;;;;;;;10.86;100.00;101202.59;1422973;92;21456;-85
2023/10/02 01:18:21;;;;;;;7.30;2.87;;;;;;;10.87;100.00;101204.27;1403138;92;21450;-86
2023/10/02 01:20:35;;;;;;;8.67;3.43;;;;;;;10.86;100.00;101207.89;1417841;92;21405;-86
2023/10/02 01:23:12;;;;;;;8.23;3.87;;;;;;;10.82;100.00;101202.86;1425541;91;21383;-84
2023/10/02 01:25:45;;;;;;;7.60;2.57;;;;;;;10.79;100.00;101208.41;1420166;92;21613;-86
2023/10/02 01:28:13;;;;;;;7.53;2.43;;;;;;;10.77;100.00;101205.05;1425428;91;22402;-84
2023/10/02 01:30:47;;;;;;;9.83;2.40;;;;;;;10.76;100.00;101210.00;1420929;92;22366;-85
2023/10/02 01:33:22;;;;;;;10.97;2.97;;;;;;;10.75;100.00;101204.33;1400533;92;22428;-85
2023/10/02 01:35:52;;;;;;;8.13;2.43;;;;;;;10.73;100.00;101203.64;1421073;92;21478;-83
2023/10/02 01:38:34;;;;;;;10.47;2.60;;;;;;;10.68;100.00;101206.33;1421901;91;22456;-85
2023/10/02 01:41:08;;;;;;;6.27;2.47;;;;;;;10.60;100.00;101199.02;1420690;91;22366;-85
2023/10/02 01:43:42;;;;;;;6.47;3.20;;;;;;;10.51;100.00;101202.44;1428739;91;21398;-85
2023/10/02 01:46:10;;;;;;;9.80;2.53;;;;;;;10.46;100.00;101200.66;1417533;92;22498;-85
2023/10/02 01:48:41;;;;;;;5.77;2.47;;;;;;;10.40;100.00;101195.39;1423412;91;21367;-86
2023/10/02 01:51:16;;;;;;;;;;;;;;;10.39;100.00;101195.87;1422889;91;22315;-85
2023/10/02 01:53:48;;;;;;;8.77;2.60;;;;;;;10.38;100.00;101202.11;1430570;92;20289;-86
2023/10/02 01:56:17;;;;;;;10.03;2.70;;;;;;;10.36;100.00;101202.75;1424522;91;22286;-86
2023/10/02 01:58:48;;;;;;;11.13;3.60;;;;;;;10.37;100.00;101204.91;1421984;91;22367;-86
2023/10/02 02:01:16;;;;;;;13.73;3.00;;;;;;;10.37;100.00;101205.73;1423514;92;22382;-86
2023/10/02 02:03:51;;;;;;;12.17;3.33;;;;;;;10.34;100.00;101209.13;1426033;92;21331;-85
2023/10/02 02:06:21;;;;;;;9.00;3.40;;;;;;;10.30;100.00;101213.84;1422456;91;21384;-85
2023/10/02 02:08:58;;;;;;;7.70;2.92;;;;;;;10.26;100.00;101215.02;1423495;91;22226;-90
2023/10/02 02:11:24;;;;;;;9.03;2.60;;;;;;;10.25;100.00;101214.67;1415985;92;22321;-89
2023/10/02 02:13:55;;;;;;;12.00;3.03;;;;;;;10.24;100.00;101222.26;1422005;92;22395;-84
2023/10/02 02:16:25;;;;;;;;;;;;;;;10.27;100.00;101228.65;1421736;92;21398;-84
2023/10/02 02:18:58;;;;;;;4.58;2.25;;;;;;;10.29;100.00;101226.70;1420864;92;20304;-85
2023/10/02 02:21:28;;;;;;;13.73;2.57;;;;;;;10.34;100.00;101222.36;1423395;92;21509;-84
2023/10/02 02:24:06;;;;;;;7.43;2.83;;;;;;;10.37;100.00;101220.30;1415143;92;21406;-85
2023/10/02 02:26:33;;;;;;;7.53;2.60;;;;;;;10.41;100.00;101220.88;1427537;92;21354;-86
2023/10/02 02:29:01;;;;;;;7.57;2.97;;;;;;;10.39;100.00;101218.37;1421967;92;21471;-85
2023/10/02 02:31:29;;;;;;;9.67;2.60;;;;;;;10.37;100.00;101224.27;1422627;92;21656;-85
2023/10/02 02:34:14;;;;;;;11.80;3.33;;;;;;;10.30;100.00;101219.14;1424741;91;21538;-84
2023/10/02 02:36:35;;;;;;;8.27;2.87;;;;;;;10.25;100.00;101222.60;1420294;92;21464;-85
2023/10/02 02:39:16;;;;;;;7.67;2.50;;;;;;;10.21;100.00;101223.80;1421419;91;21442;-86
2023/10/02 02:42:08;;;;;;;13.25;4.10;;;;;;;10.17;100.00;101225.03;1422319;92;21347;-85
2023/10/02 02:44:36;;;;;;;8.00;2.77;;;;;;;10.17;100.00;101235.61;1423704;92;21480;-87
2023/10/02 02:46:59;;;;;;;9.15;3.72;;;;;;;10.16;100.00;101232.63;1386230;92;21697;-85
2023/10/02 02:49:25;;;;;;;7.80;3.73;;;;;;;10.12;100.00;101232.50;1422617;92;21302;-87
2023/10/02 02:51:55;;;;;;;14.30;4.03;;;;;;;10.09;100.00;101238.04;1421605;91;22383;-89
2023/10/02 02:54:25;;;;;;;8.90;3.10;;;;;;;10.08;100.00;101239.84;1430626;92;22367;-90
2023/10/02 02:56:57;;;;;;;7.43;3.10;;;;;;;10.07;100.00;101238.18;1421609;92;21448;-88
2023/10/02 02:59:28;;;;;;;9.53;3.07;;;;;;;10.06;100.00;101233.00;1427490;92;21368;-89
2023/10/02 03:02:08;;;;;;;10.30;3.43;;;;;;;10.03;100.00;101237.22;1422652;92;22344;-88
2023/10/02 03:04:23;;;;;;;9.17;2.50;;;;;;;10.01;100.00;101241.78;1407515;92;21615;-90
2023/10/02 03:07:08;;;;;;;7.97;2.80;;;;;;;10.01;100.00;101236.03;1425913;91;22322;-89
2023/10/02 03:09:23;;;;;;;8.47;3.37;;;;;;;10.01;100.00;101233.84;1419397;92;21433;-89
2023/10/02 03:11:47;;;;;;;15.80;4.57;;;;;;;10.00;100.00;101232.17;1420377;92;21420;-87
2023/10/02 03:14:13;;;;;;;10.07;3.37;;;;;;;9.98;100.00;101228.81;1419755;91;21549;-87
2023/10/02 03:16:44;;;;;;;11.80;4.33;;;;;;;9.97;100.00;101234.58;1422448;92;21486;-87
2023/10/02 03:19:08;;;;;;;7.33;2.43;;;;;;;9.99;100.00;101238.44;1420786;92;21383;-86
2023/10/02 03:21:37;;;;;;;9.70;2.60;;;;;;;10.00;100.00;101233.50;1406847;92;21583;-86
2023/10/02 03:24:04;;;;;;;8.20;3.07;;;;;;;9.98;100.00;101232.28;1420142;92;21442;-87
2023/10/02 03:29:02;;;;;;;5.27;2.83;;;;;;;9.87;100.00;101234.50;1425568;92;21567;-88
2023/10/02 03:31:36;;;;;;;11.23;4.10;;;;;;;9.81;100.00;101233.67;1423303;91;22475;-89
2023/10/02 03:34:27;;;;;;;6.10;2.60;;;;;;;9.76;100.00;101234.52;1409960;91;21383;-88
2023/10/02 03:36:38;;;;;;;6.73;2.37;;;;;;;9.75;100.00;101238.59;1408672;92;21486;-90
2023/10/02 03:43:18;;;;;;;11.87;2.80;;;;;;;9.72;100.00;101239.67;1417720;92;21523;-84
2023/10/02 03:45:38;;;;;;;7.57;3.00;;;;;;;9.70;100.00;101245.09;1422409;92;21652;-83
2023/10/02 03:48:02;;;;;;;5.53;2.30;;;;;;;9.69;100.00;101251.81;1423146;92;21493;-84
2023/10/02 03:50:27;;;;;;;8.00;2.67;;;;;;;9.68;100.00;101252.78;1422423;92;21576;-88
2023/10/02 03:53:12;;;;;;;7.30;3.27;;;;;;;9.66;100.00;101257.34;1423172;91;22284;-88
2023/10/02 03:55:21;;;;;;;6.77;2.83;;;;;;;9.68;100.00;101249.66;1420682;92;22610;-88
2023/10/02 03:57:49;;;;;;;9.87;3.37;;;;;;;9.74;100.00;101245.69;1418990;92;21450;-87
2023/10/02 04:02:45;;;;;;;9.93;3.33;;;;;;;9.87;100.00;101254.33;1423112;91;21391;-83
2023/10/02 04:08:21;;;;;;;7.67;3.37;;;;;;;10.01;100.00;101257.65;1415727;92;22359;-83
2023/10/02 04:10:51;;;;;;;5.97;2.73;;;;;;;10.08;100.00;101256.20;1409036;92;21479;-84
2023/10/02 04:13:02;;;;;;;7.27;3.27;;;;;;;10.13;100.00;101262.80;1419196;92;21397;-85
2023/10/02 04:15:28;;;;;;;8.83;2.93;;;;;;;10.14;100.00;101261.83;1428533;92;22587;-83
2023/10/02 04:17:54;;;;;;;9.93;3.20;;;;;;;10.11;100.00;101264.72;1424313;91;21414;-84
2023/10/02 04:20:27;;;;;;;13.70;3.60;;;;;;;10.08;100.00;101259.69;1419671;92;21480;-83
2023/10/02 04:23:18;;;;;;;12.77;3.53;;;;;;;10.05;100.00;101261.74;1424832;92;22278;-83
2023/10/02 04:25:25;;;;;;;16.33;3.70;;;;;;;10.03;100.00;101270.27;1420693;92;22279;-83
2023/10/02 04:30:25;;;;;;;6.93;2.97;;;;;;;9.96;100.00;101265.14;1424715;91;21412;-88
2023/10/02 04:32:51;;;;;;;7.13;2.57;;;;;;;9.92;100.00;101265.84;1418465;92;21500;-85
2023/10/02 04:38:09;;;;;;;12.47;3.30;;;;;;;9.82;100.00;101268.39;1425808;92;21420;-86
2023/10/02 04:40:52;;;;;;;5.37;3.00;;;;;;;9.78;100.00;101274.90;1427878;92;21435;-83
2023/10/02 04:43:19;;;;;;;7.73;2.70;;;;;;;9.75;100.00;101275.11;1424512;92;21442;-86
2023/10/02 04:45:52;;;;;;;15.53;3.97;;;;;;;9.74;100.00;101280.05;1417998;91;21465;-86
2023/10/02 04:48:27;;;;;;;13.07;3.10;;;;;;;9.73;100.00;101278.87;1419246;92;21457;-80
2023/10/02 04:50:56;;;;;;;14.27;3.33;;;;;;;9.73;100.00;101278.87;1421672;91;21413;-85
2023/10/02 04:53:22;;;;;;;21.50;3.17;;;;;;;9.73;100.00;101283.67;1418758;92;21456;-83
2023/10/02 04:56:07;;;;;;;13.27;3.20;;;;;;;9.72;100.00;101280.64;1416828;92;21487;-83
2023/10/02 04:58:19;;;;;;;12.20;3.60;;;;;;;9.74;100.00;101285.34;1328694;93;21287;-83
2023/10/02 05:03:36;;;;;;;14.30;4.13;;;;;;;9.79;100.00;101289.78;1501075;91;21250;-83
2023/10/02 05:06:04;;;;;;;13.47;3.70;;;;;;;9.81;100.00;101289.64;1500922;92;21229;-83
2023/10/02 05:08:42;;;;;;;10.63;2.83;;;;;;;9.82;100.00;101296.15;1425983;92;21442;-85
2023/10/02 05:11:23;;;;;;;10.40;3.00;;;;;;;9.82;100.00;101297.47;1500925;91;21392;-83
2023/10/02 05:13:45;;;;;;;8.00;3.37;;;;;;;9.83;100.00;101295.17;1392609;92;21405;-83
2023/10/02 05:16:12;;;;;;;10.90;3.67;;;;;;;9.84;100.00;101295.55;1437378;92;21332;-84
2023/10/02 05:18:44;;;;;;;7.93;2.97;;;;;;;9.91;100.00;101304.67;1351183;91;21266;-83
2023/10/02 05:21:16;;;;;;;26.43;3.50;;;;;;;10.01;100.00;101308.77;1472964;91;21331;-80
2023/10/02 05:23:43;;;;;;;10.75;3.35;;;;;;;10.08;100.00;101302.49;1421788;92;22535;-85
2023/10/02 05:26:29;;;;;;;11.27;3.13;;;;;;;10.17;100.00;101303.07;1423154;91;21501;-86
2023/10/02 05:28:46;;;;;;;10.90;3.77;;;;;;;10.30;100.00;101301.16;1417018;92;21493;-84
2023/10/02 05:31:15;;;;;;;12.67;4.00;;;;;;;10.45;100.00;101303.52;1404614;92;21397;-87
2023/10/02 05:33:41;;;;;;;14.77;2.90;;;;;;;10.59;100.00;101312.00;1420989;91;21397;-86
2023/10/02 05:36:09;;;;;;;7.93;3.57;;;;;;;10.74;100.00;101306.41;1418543;91;22284;-87
2023/10/02 05:38:38;;;;;;;16.93;4.07;;;;;;;10.90;100.00;101309.94;1421353;92;21382;-85
2023/10/02 05:41:12;;;;;;;7.43;3.47;;;;;;;11.02;100.00;101312.91;1421203;91;21412;-86
2023/10/02 05:43:55;;;;;;;8.93;2.70;;;;;;;11.18;100.00;101319.05;1421974;92;22317;-84
2023/10/02 05:46:06;;;;;;;9.83;3.30;;;;;;;11.35;100.00;101321.11;1421655;92;21493;-82
2023/10/02 05:48:37;;;;;;;11.40;3.20;;;;;;;11.54;100.00;101319.06;1422883;91;21494;-84
2023/10/02 05:51:09;;;;;;;11.23;3.10;;;;;;;11.74;100.00;101326.13;1419028;92;22402;-84
2023/10/02 05:53:36;;;;;;;11.90;3.40;;;;;;;11.91;100.00;101325.16;1425476;91;22499;-84
2023/10/02 05:58:39;;;;;;;7.73;2.57;;;;;;;12.18;100.00;101330.70;1417147;91;22022;-82
2023/10/02 06:01:18;;;;;;;7.17;2.67;;;;;;;12.26;100.00;101342.47;1353761;91;21250;-83
2023/10/02 06:03:37;;;;;;;6.73;3.00;;;;;;;12.37;100.00;101338.34;1354064;93;22204;-84
2023/10/02 06:06:15;;;;;;;10.63;3.37;;;;;;;12.51;100.00;101340.59;1350849;92;21443;-84
2023/10/02 06:08:34;;;;;;;;;;;;;;;12.70;100.00;101349.08;1480733;92;21516;-85
2023/10/02 06:11:25;;;;;;;9.80;3.20;;;;;;;12.88;100.00;101350.05;1356858;92;20238;-81
2023/10/02 06:13:37;;;;;;;16.37;3.13;;;;;;;13.10;100.00;101347.60;1350679;92;22426;-84
2023/10/02 06:16:07;;;;;;;18.10;3.30;;;;;;;13.34;100.00;101354.81;1415876;92;21398;-87
2023/10/02 06:18:32;;;;;;;11.10;3.23;;;;;;;13.57;100.00;101356.64;1423113;92;21486;-84
2023/10/02 06:21:03;;;;;;;10.57;3.80;;;;;;;13.77;100.00;101355.59;1413202;92;21384;-87
2023/10/02 06:23:37;;;;;;;;;;;;;;;13.91;100.00;101368.92;1417290;91;21375;-81
2023/10/02 06:26:03;;;;;;;13.80;3.70;;;;;;;13.96;100.00;101369.33;1423171;90;20864;-85
2023/10/02 06:28:30;;;;;;;11.87;3.93;;;;;;;14.04;100.00;101369.44;1419290;92;22761;-88
2023/10/02 06:30:56;;;;;;;6.47;3.23;;;;;;;14.10;100.00;101371.50;1421131;91;21638;-80
2023/10/02 06:33:23;;;;;;;10.97;3.83;;;;;;;14.16;100.00;101370.91;1424971;92;21419;-81
2023/10/02 06:35:57;;;;;;;11.60;3.57;;;;;;;14.22;100.00;101370.81;1421221;92;21434;-85
2023/10/02 06:38:32;;;;;;;11.77;4.13;;;;;;;14.32;100.00;101375.57;1500986;91;21295;-86
2023/10/02 06:40:57;;;;;;;21.37;4.00;;;;;;;14.33;100.00;101371.11;1497420;92;21384;-86
2023/10/02 06:43:29;;;;;;;21.63;3.57;;;;;;;14.36;100.00;101371.64;1350423;92;21488;-84
2023/10/02 06:46:13;;;;;;;15.10;3.73;;;;;;;14.39;100.00;101366.52;1406344;92;21495;-85
2023/10/02 06:48:43;;;;;;;11.07;3.13;;;;;;;14.39;100.00;101370.51;1352914;92;21359;-85
2023/10/02 06:51:11;;;;;;;12.30;3.67;;;;;;;14.42;100.00;101376.36;1479303;92;21666;-84
2023/10/02 06:53:40;;;;;;;10.60;3.73;;;;;;;14.44;100.00;101371.73;1332455;93;21361;-83
2023/10/02 06:56:10;;;;;;;12.77;3.77;;;;;;;14.52;100.00;101368.83;1455233;92;21420;-84
2023/10/02 06:58:49;;;;;;;16.20;3.80;;;;;;;14.60;100.00;101365.76;1403189;92;22595;-85
2023/10/02 07:01:19;;;;;;;16.63;3.40;;;;;;;14.72;100.00;101365.54;1421594;92;21405;-85
2023/10/02 07:03:50;;;;;;;30.15;4.40;;;;;;;14.83;100.00;101362.15;1419033;92;22003;-83
2023/10/02 07:06:15;;;;;;;11.87;3.53;;;;;;;14.92;100.00;101365.73;1422198;92;21516;-84
2023/10/02 07:08:45;;;;;;;12.87;3.50;;;;;;;14.96;100.00;101362.25;1418159;92;22440;-84
2023/10/02 07:11:11;;;;;;;20.10;4.33;;;;;;;15.03;100.00;101369.48;1404465;92;22522;-84
2023/10/02 07:13:51;;;;;;;22.10;4.27;;;;;;;15.06;100.00;101368.34;1401895;92;21450;-85
2023/10/02 07:16:07;;;;;;;22.45;4.95;;;;;;;15.11;100.00;101371.40;1421530;92;21485;-85
2023/10/02 07:18:37;;;;;;;7.93;3.50;;;;;;;15.12;100.00;101370.39;1421775;91;21429;-85
2023/10/02 07:21:10;;;;;;;8.98;3.37;;;;;;;15.14;100.00;101379.09;1420838;92;21451;-85
2023/10/02 07:23:40;;;;;;;12.70;3.60;;;;;;;15.13;100.00;101378.72;1422284;91;21541;-85
2023/10/02 07:26:19;;;;;;;10.20;3.17;;;;;;;15.18;100.00;101375.11;1423613;92;21406;-85
2023/10/02 07:28:51;;;;;;;12.23;3.97;;;;;;;15.19;100.00;101375.94;1474892;91;21655;-84
2023/10/02 07:31:19;;;;;;;6.87;2.97;;;;;;;15.25;100.00;101380.67;1423344;92;21419;-85
2023/10/02 07:33:46;;;;;;;16.00;3.83;;;;;;;15.27;100.00;101376.84;1418186;92;22483;-85
2023/10/02 07:36:15;;;;;;;12.70;3.80;;;;;;;15.31;100.00;101379.55;1422694;91;21317;-85
2023/10/02 07:38:45;;;;;;;15.30;4.03;;;;;;;15.31;100.00;101383.55;1420963;92;21361;-84
2023/10/02 07:41:23;;;;;;;12.33;4.03;;;;;;;15.32;100.00;101381.22;1426070;91;22388;-84
2023/10/02 07:43:55;;;;;;;12.60;4.13;;;;;;;15.40;100.00;101384.95;1420086;92;21427;-84
2023/10/02 07:46:22;;;;;;;11.37;4.97;;;;;;;15.46;100.00;101381.66;1419849;92;22491;-83
2023/10/02 07:49:00;;;;;;;12.67;5.07;;;;;;;15.51;100.00;101386.03;1426510;91;21428;-86
2023/10/02 07:51:37;;;;;;;9.33;4.30;;;;;;;15.53;100.00;101387.52;1428831;92;21634;-83
2023/10/02 07:54:13;;;;;;;13.18;3.45;;;;;;;15.57;100.00;101388.91;1427992;92;21597;-83
2023/10/02 07:56:40;;;;;;;15.87;4.50;;;;;;;15.64;100.00;101397.11;1423029;92;21501;-85
2023/10/02 07:59:07;;;;;;;13.90;4.63;;;;;;;15.72;100.00;101390.52;1423009;92;21762;-86
2023/10/02 08:01:33;;;;;;;11.03;3.90;;;;;;;15.79;100.00;101390.25;1422585;92;21397;-86
2023/10/02 08:04:03;;;;;;;15.53;5.10;;;;;;;15.85;100.00;101386.58;1425170;92;22971;-88
2023/10/02 08:06:42;;;;;;;9.03;3.83;;;;;;;15.88;100.00;101395.60;1426113;91;21605;-86
2023/10/02 08:11:53;;;;;;;14.23;5.67;;;;;;;15.83;100.00;101396.60;1420924;91;21494;-87
2023/10/02 08:14:38;;;;;;;18.63;6.43;;;;;;;15.86;100.00;101399.78;1410191;92;21647;-87
2023/10/02 08:17:21;;;;;;;16.43;6.53;;;;;;;15.88;100.00;101400.94;1423084;92;21716;-86
2023/10/02 08:19:59;;;;;;;21.07;6.73;;;;;;;15.95;100.00;101406.83;1418655;92;21375;-87
2023/10/02 08:22:35;;;;;;;13.70;5.17;;;;;;;16.05;100.00;101396.02;1423369;91;21473;-86
2023/10/02 08:24:56;;;;;;;18.70;4.77;;;;;;;16.16;100.00;101400.25;1425721;92;21457;-87
2023/10/02 08:27:22;;;;;;;11.03;5.40;;;;;;;16.17;100.00;101400.58;1400805;92;22293;-86
2023/10/02 08:29:48;;;;;;;13.67;5.33;;;;;;;16.21;100.00;101401.95;1419272;92;21611;-85
2023/10/02 08:32:28;;;;;;;12.63;4.33;;;;;;;16.22;100.00;101408.45;1423114;91;21383;-85
2023/10/02 08:34:42;;;;;;;14.37;4.60;;;;;;;16.24;100.00;101405.12;1416828;92;21420;-86
2023/10/02 08:37:09;;;;;;;13.83;4.47;;;;;;;16.26;100.00;101409.49;1420710;92;21549;-86
2023/10/02 08:39:40;;;;;;;12.47;5.33;;;;;;;16.28;100.00;101403.47;1403108;92;21582;-86
2023/10/02 08:42:11;;;;;;;17.23;6.03;;;;;;;16.35;100.00;101399.17;1424270;91;21383;-86
2023/10/02 08:44:42;;;;;;;9.78;5.22;;;;;;;16.45;100.00;101402.02;1423356;92;22321;-85
2023/10/02 08:47:12;;;;;;;14.20;4.50;;;;;;;16.53;100.00;101398.55;1421000;92;21412;-85
2023/10/02 08:49:40;;;;;;;16.67;5.80;;;;;;;16.56;100.00;101403.56;1421735;92;22256;-85
2023/10/02 08:52:11;;;;;;;12.00;5.30;;;;;;;16.59;100.00;101404.57;1419380;92;22315;-86
2023/10/02 08:54:42;;;;;;;12.10;4.37;;;;;;;16.61;100.00;101403.91;1428515;92;21611;-86
2023/10/02 08:57:09;;;;;;;12.23;4.97;;;;;;;16.67;100.00;101405.93;1420963;92;21486;-86
2023/10/02 08:59:40;;;;;;;17.40;5.30;;;;;;;16.68;100.00;101408.10;1420222;91;21361;-86
2023/10/02 09:02:15;;;;;;;16.40;5.27;;;;;;;16.66;100.00;101411.45;1418637;92;21564;-86
2023/10/02 09:04:51;;;;;;;18.63;5.67;;;;;;;16.70;100.00;101416.30;1422364;92;22265;-85
2023/10/02 09:10:28;;;;;;;14.63;4.87;;;;;;;16.94;100.00;101416.53;1428589;92;21546;-86
2023/10/02 09:13:16;;;;;;;12.60;5.33;;;;;;;17.05;100.00;101415.70;1425620;91;21382;-85
2023/10/02 09:15:48;;;;;;;14.28;5.08;;;;;;;17.13;100.00;101409.03;1427093;92;22316;-86
2023/10/02 09:21:22;;;;;;;15.50;5.75;;;;;;;17.23;100.00;101401.34;1428319;92;21413;-86
2023/10/02 09:23:51;;;;;;;17.57;5.50;;;;;;;17.39;100.00;101401.34;1430038;91;21545;-85
2023/10/02 09:26:27;;;;;;;15.83;6.00;;;;;;;17.52;100.00;101400.33;1421092;92;21995;-86
2023/10/02 09:29:03;;;;;;;11.53;4.60;;;;;;;17.57;100.00;101405.98;1424223;92;21486;-84
2023/10/02 09:31:34;;;;;;;19.23;6.55;;;;;;;17.58;100.00;101402.33;1401330;92;22299;-86
2023/10/02 09:34:10;;;;;;;14.73;4.72;;;;;;;17.67;100.00;101401.81;1423539;92;21619;-86
2023/10/02 09:36:47;;;;;;;15.55;5.40;;;;;;;17.70;100.00;101400.13;1423736;92;21449;-86
2023/10/02 09:39:31;;;;;;;13.40;6.80;;;;;;;17.74;100.00;101405.97;1421709;92;21622;-86
2023/10/02 09:41:35;;;;;;;14.73;5.67;;;;;;;17.79;100.00;101407.67;1418577;92;22346;-86
2023/10/02 09:44:15;;;;;;;11.80;5.03;;;;;;;17.91;100.00;101411.64;1423566;91;22462;-86
2023/10/02 09:46:35;;;;;;;14.15;4.78;;;;;;;17.94;100.00;101409.13;1421114;92;22345;-86
2023/10/02 09:49:10;;;;;;;13.95;5.00;;;;;;;18.05;100.00;101408.77;1419612;91;21413;-86
2023/10/02 09:52:10;;;;;;;10.05;5.28;;;;;;;18.11;100.00;101407.23;1426417;92;21389;-86
2023/10/02 09:54:48;;;;;;;12.23;5.45;;;;;;;18.19;100.00;101409.89;1423618;91;21553;-86
2023/10/02 09:57:24;;;;;;;11.60;4.67;;;;;;;18.27;100.00;101412.54;1421829;92;21626;-85
2023/10/02 09:59:48;;;;;;;9.80;4.78;;;;;;;18.32;100.00;101407.47;1421880;92;21561;-86
2023/10/02 10:13:32;;;;;;;14.47;5.78;;;;;;;18.77;100.00;101407.27;1427298;91;21493;-85
2023/10/02 10:16:19;;;;;;;15.85;5.55;;;;;;;18.84;100.00;101409.55;1424469;92;21494;-85
2023/10/02 10:22:00;;;;;;;15.43;5.28;;;;;;;19.12;100.00;101395.61;1420508;91;21531;-86
2023/10/02 10:27:54;;;;;;;17.65;4.75;;;;;;;19.46;100.00;101394.31;1424721;91;22425;-85
2023/10/02 10:30:31;;;;;;;17.15;4.35;;;;;;;19.58;100.00;101388.81;1424551;91;21554;-86
2023/10/02 10:35:48;;;;;;;14.85;5.30;;;;;;;19.81;100.00;101377.51;1416574;92;21383;-85
2023/10/02 10:38:31;;;;;;;12.07;4.50;;;;;;;19.96;100.00;101380.19;1416936;92;21629;-86
2023/10/02 10:41:00;;;;;;;22.70;4.05;;;;;;;19.99;100.00;101374.44;1419442;91;21458;-85
2023/10/02 10:43:26;;;;;;;15.60;4.42;;;;;;;19.99;100.00;101374.44;1423808;92;22440;-85
2023/10/02 10:45:54;;;;;;;10.55;3.83;;;;;;;19.96;100.00;101367.27;1418938;92;21480;-85
2023/10/02 10:48:22;;;;;;;12.23;3.15;;;;;;;20.10;100.00;101367.77;1423388;90;21630;-86
2023/10/02 10:51:00;;;;;;;12.55;3.58;;;;;;;20.32;100.00;101353.05;1419371;92;21397;-85
2023/10/02 10:53:28;;;;;;;15.83;4.03;;;;;;;20.44;100.00;101351.01;1422169;92;21463;-86
2023/10/02 10:56:03;;;;;;;12.75;4.30;;;;;;;20.57;100.00;101351.71;1419306;92;21383;-85
2023/10/02 10:58:33;;;;;;;15.90;4.03;;;;;;;20.57;100.00;101351.71;1420903;92;21589;-85
2023/10/02 11:01:05;;;;;;;15.68;3.80;;;;;;;20.76;100.00;101352.09;1421959;91;21447;-86
2023/10/02 11:03:32;;;;;;;8.10;3.15;;;;;;;20.89;100.00;101338.77;1420946;92;21575;-85
2023/10/02 11:06:04;;;;;;;13.08;3.35;;;;;;;20.89;100.00;101342.81;1425609;92;21406;-86
2023/10/02 11:08:37;;;;;;;13.20;3.77;;;;;;;21.00;94.62;101332.84;1425128;91;21720;-86
2023/10/02 11:11:18;;;;;;;12.58;3.67;;;;;;;21.37;97.09;101336.27;1419185;92;22433;-85
2023/10/02 11:13:54;;;;;;;9.10;3.20;;;;;;;21.47;94.53;101331.38;1419635;92;21546;-85
2023/10/02 11:16:38;;;;;;;9.45;3.17;;;;;;;21.43;83.78;101323.88;1422839;92;21501;-86
2023/10/02 11:19:21;;;;;;;9.83;3.72;;;;;;;21.41;70.62;101326.78;1423343;92;22473;-85
2023/10/02 11:22:16;;;;;;;13.78;3.65;;;;;;;21.55;69.94;101325.84;1425883;91;21567;-85
2023/10/02 11:24:53;;;;;;;12.95;4.45;;;;;;;21.69;68.49;101325.37;1421386;92;21575;-85
2023/10/02 11:27:21;;;;;;;13.00;3.30;;;;;;;21.68;67.57;101322.38;1422384;91;21425;-85
2023/10/02 11:30:02;;;;;;;8.90;2.90;;;;;;;21.72;67.68;101324.14;1417774;92;22388;-86
2023/10/02 11:32:58;;;;;;;11.08;3.87;;;;;;;21.50;66.11;101318.86;1417082;92;22292;-85
2023/10/02 11:35:28;;;;;;;13.90;4.30;;;;;;;21.38;65.90;101321.80;1419509;92;22425;-85
2023/10/02 11:37:52;;;;;;;12.77;3.43;;;;;;;21.17;64.88;101320.77;1422126;92;22324;-85
2023/10/02 11:40:22;;;;;;;14.45;4.47;;;;;;;21.18;65.06;101317.06;1422769;91;21494;-85
2023/10/02 11:42:46;;;;;;;11.97;3.65;;;;;;;21.24;66.58;101310.58;1427216;92;21494;-85
2023/10/02 11:45:12;;;;;;;15.08;4.20;;;;;;;21.57;67.17;101306.77;1419582;91;21502;-85
2023/10/02 11:47:39;;;;;;;10.53;3.12;;;;;;;21.99;66.01;101308.95;1421147;92;21568;-86
2023/10/02 11:50:06;;;;;;;10.38;3.62;;;;;;;22.37;64.77;101307.12;1425240;92;21390;-86
2023/10/02 11:52:32;;;;;;;6.30;2.60;;;;;;;22.56;62.76;101306.83;1419651;91;21426;-86
2023/10/02 11:54:59;;;;;;;10.63;3.77;;;;;;;22.82;62.81;101296.60;1420772;91;22270;-86
2023/10/02 11:57:25;;;;;;;12.93;3.12;;;;;;;22.91;58.99;101305.62;1426485;91;21383;-86
2023/10/02 11:59:51;;;;;;;14.63;3.65;;;;;;;22.98;58.31;101299.72;1420257;91;21427;-85
2023/10/02 12:02:18;;;;;;;13.25;4.05;;;;;;;23.06;57.51;101300.03;1423914;92;22353;-85
2023/10/02 12:04:45;;;;;;;9.15;3.25;;;;;;;23.13;54.18;101297.31;1420256;92;22308;-85
2023/10/02 12:07:16;;;;;;;10.98;4.22;;;;;;;23.34;53.27;101301.14;1420860;92;21398;-84
2023/10/02 12:09:47;;;;;;;13.62;3.87;;;;;;;23.35;47.10;101297.39;1422252;92;21583;-86
2023/10/02 12:12:12;;;;;;;10.43;4.12;;;;;;;23.54;48.89;101293.52;1415838;92;22876;-86
2023/10/02 12:14:39;;;;;;;49.70;4.83;;;;;;;23.59;46.26;101295.89;1424510;91;21604;-86
2023/10/02 12:17:07;;;;;;;13.20;4.20;;;;;;;23.62;46.86;101288.72;1417563;91;22233;-85
2023/10/02 12:19:36;;;;;;;9.30;3.45;;;;;;;23.72;46.61;101292.34;1423480;92;21580;-86
2023/10/02 12:22:05;;;;;;;11.28;4.15;;;;;;;23.71;46.19;101293.39;1424969;92;21493;-85
2023/10/02 12:24:32;;;;;;;13.93;3.52;;;;;;;23.50;42.75;101295.80;1427039;92;21434;-85
2023/10/02 12:26:58;;;;;;;16.12;4.22;;;;;;;23.43;45.28;101291.77;1423032;91;22255;-85